Time;durP1;ratioP1;P1;durP2;ratioP2;P2;SDS_P1;SDS_P2;PMS_P1;PMS_P2;Temp;Humidity;BMP_temperature;BMP_pressure;BME280_temperature;BME280_humidity;BME280_pressure;Samples;Min_cycle;Max_cycle;Signal;HPM_P1;HPM_P2
2022/10/17 00:01:48;;;;;;;7.38;4.63;;;15.60;99.90;;;;;;5034516;28;20228;-70
2022/10/17 00:04:13;;;;;;;8.32;5.50;;;15.70;99.90;;;;;;5033353;28;20243;-70
2022/10/17 00:06:39;;;;;;;12.23;4.88;;;15.70;99.90;;;;;;5033749;28;20219;-70
2022/10/17 00:09:05;;;;;;;8.52;5.35;;;15.70;99.90;;;;;;5037470;28;20577;-70
2022/10/17 00:11:30;;;;;;;7.68;5.68;;;15.60;99.90;;;;;;5033937;28;20181;-70
2022/10/17 00:13:56;;;;;;;7.63;5.45;;;15.60;99.90;;;;;;5031445;28;20220;-70
2022/10/17 00:16:28;;;;;;;9.07;6.00;;;15.60;99.90;;;;;;5034686;28;20211;-71
2022/10/17 00:18:54;;;;;;;8.77;6.25;;;15.60;99.90;;;;;;5047369;23;20227;-68
2022/10/17 00:21:21;;;;;;;8.77;6.32;;;15.60;99.90;;;;;;5035186;28;20224;-70
2022/10/17 00:23:47;;;;;;;11.75;6.85;;;15.60;99.90;;;;;;5027469;28;20251;-70
2022/10/17 00:26:13;;;;;;;9.25;5.68;;;15.60;99.90;;;;;;5040084;28;20270;-70
2022/10/17 00:28:39;;;;;;;7.28;5.75;;;15.60;99.90;;;;;;5036303;28;20212;-70
2022/10/17 00:31:06;;;;;;;11.82;6.22;;;15.60;99.90;;;;;;5026006;28;20271;-69
2022/10/17 00:33:33;;;;;;;8.57;6.10;;;15.50;99.90;;;;;;5035057;28;20216;-70
2022/10/17 00:36:25;;;;;;;8.55;5.90;;;15.50;99.90;;;;;;5035718;28;20196;-70
2022/10/17 00:38:53;;;;;;;7.88;6.25;;;15.50;99.90;;;;;;5028921;28;20212;-69
2022/10/17 00:41:23;;;;;;;9.88;6.57;;;15.50;99.90;;;;;;5039100;28;20204;-69
2022/10/17 00:43:54;;;;;;;11.38;6.00;;;15.50;99.90;;;;;;5040438;28;20204;-69
2022/10/17 00:46:21;;;;;;;10.30;6.45;;;15.50;99.90;;;;;;5032255;28;20212;-70
2022/10/17 00:48:49;;;;;;;8.88;6.25;;;15.40;99.90;;;;;;5031801;28;20215;-69
2022/10/17 00:51:16;;;;;;;9.05;5.82;;;15.50;99.90;;;;;;5045704;28;20294;-69
2022/10/17 00:53:42;;;;;;;7.95;5.63;;;15.50;99.90;;;;;;5038497;28;20179;-68
2022/10/17 00:56:07;;;;;;;7.57;5.30;;;15.50;99.90;;;;;;5033536;28;20291;-68
2022/10/17 00:58:33;;;;;;;10.10;5.57;;;15.50;99.90;;;;;;5032142;28;20216;-69
2022/10/17 01:01:00;;;;;;;7.70;5.90;;;15.50;99.90;;;;;;5038706;28;20208;-69
2022/10/17 01:03:26;;;;;;;11.55;6.00;;;15.60;99.90;;;;;;5038404;28;20208;-70
2022/10/17 01:05:52;;;;;;;7.63;5.43;;;15.50;99.90;;;;;;5027281;28;20188;-70
2022/10/17 01:08:17;;;;;;;12.10;5.75;;;15.50;99.90;;;;;;5050811;28;20207;-70
2022/10/17 01:10:58;;;;;;;5.72;5.10;;;15.60;99.90;;;;;;5032940;28;20212;-70
2022/10/17 01:13:47;;;;;;;8.85;5.53;;;15.60;99.90;;;;;;5023695;28;20204;-71
2022/10/17 01:16:44;;;;;;;7.57;5.28;;;15.50;99.90;;;;;;5027900;28;20264;-70
2022/10/17 01:19:50;;;;;;;6.00;4.85;;;15.50;99.90;;;;;;5031740;28;20221;-69
2022/10/17 01:22:48;;;;;;;7.20;5.10;;;15.40;99.90;;;;;;5028045;28;20761;-71
2022/10/17 01:25:35;;;;;;;5.95;4.75;;;15.40;99.90;;;;;;5041107;28;20296;-70
2022/10/17 01:28:20;;;;;;;6.68;4.80;;;15.30;99.90;;;;;;5030933;28;20342;-70
2022/10/17 01:30:58;;;;;;;8.30;4.75;;;15.30;99.90;;;;;;5026213;28;20217;-71
2022/10/17 01:33:46;;;;;;;7.97;5.10;;;15.30;99.90;;;;;;5030595;28;20232;-70
2022/10/17 01:36:23;;;;;;;5.28;4.78;;;15.30;99.90;;;;;;5040852;28;20207;-71
2022/10/17 01:39:04;;;;;;;7.20;5.22;;;15.30;99.90;;;;;;5026406;28;20255;-70
2022/10/17 01:42:01;;;;;;;5.47;4.88;;;15.30;99.90;;;;;;5037869;28;20199;-71
2022/10/17 01:44:26;;;;;;;12.13;5.38;;;15.30;99.90;;;;;;5032740;28;20291;-70
2022/10/17 01:47:06;;;;;;;7.13;5.15;;;15.30;99.90;;;;;;5027383;28;20272;-71
2022/10/17 01:49:34;;;;;;;7.05;4.88;;;15.20;99.90;;;;;;5033768;28;20227;-70
2022/10/17 01:52:07;;;;;;;8.50;5.40;;;15.20;99.90;;;;;;5035547;28;20703;-71
2022/10/17 01:54:43;;;;;;;7.45;5.35;;;15.10;99.90;;;;;;5030346;28;20219;-71
2022/10/17 01:57:19;;;;;;;8.35;5.88;;;15.10;99.90;;;;;;5024750;28;20283;-71
2022/10/17 01:59:50;;;;;;;7.97;5.45;;;15.00;99.90;;;;;;5033101;28;20220;-71
2022/10/17 02:02:17;;;;;;;6.75;5.22;;;15.00;99.90;;;;;;5033484;28;20246;-71
2022/10/17 02:04:44;;;;;;;8.77;5.55;;;15.00;99.90;;;;;;5025587;28;20752;-70
2022/10/17 02:07:11;;;;;;;6.70;6.00;;;14.90;99.90;;;;;;5032344;28;20205;-70
2022/10/17 02:09:38;;;;;;;7.68;5.57;;;14.90;99.90;;;;;;5038448;28;20211;-70
2022/10/17 02:12:41;;;;;;;7.13;5.20;;;14.90;99.90;;;;;;5027124;28;20185;-70
2022/10/17 02:15:44;;;;;;;7.10;5.65;;;14.90;99.90;;;;;;5040186;28;20227;-71
2022/10/17 02:18:19;;;;;;;6.38;5.32;;;14.80;99.90;;;;;;5031165;28;20231;-70
2022/10/17 02:20:59;;;;;;;7.30;5.22;;;14.90;99.90;;;;;;5030680;28;20694;-70
2022/10/17 02:23:25;;;;;;;7.47;5.50;;;14.90;99.90;;;;;;5028497;28;20199;-70
2022/10/17 02:25:54;;;;;;;7.32;5.57;;;14.90;99.90;;;;;;5034525;28;20209;-69
2022/10/17 02:28:38;;;;;;;6.13;5.30;;;14.90;99.90;;;;;;5032434;28;20245;-71
2022/10/17 02:31:19;;;;;;;6.65;5.50;;;14.80;99.90;;;;;;5016302;28;20228;-69
2022/10/17 02:33:57;;;;;;;5.80;5.20;;;14.90;99.90;;;;;;5026269;28;20331;-70
2022/10/17 02:36:29;;;;;;;5.45;4.95;;;14.90;99.90;;;;;;5028825;28;20212;-70
2022/10/17 02:38:55;;;;;;;7.82;5.32;;;14.90;99.90;;;;;;5022585;28;21993;-72
2022/10/17 02:41:23;;;;;;;8.25;5.13;;;15.00;99.90;;;;;;5027471;28;20195;-70
2022/10/17 02:43:49;;;;;;;7.03;5.25;;;15.00;99.90;;;;;;5027211;28;20201;-69
2022/10/17 02:46:20;;;;;;;6.30;5.68;;;15.00;99.90;;;;;;5026007;28;20283;-70
2022/10/17 02:49:00;;;;;;;5.60;5.00;;;15.00;99.90;;;;;;5020746;28;20208;-70
2022/10/17 02:51:46;;;;;;;7.38;5.05;;;15.00;99.90;;;;;;5028995;28;20702;-70
2022/10/17 02:54:35;;;;;;;6.63;4.85;;;15.00;99.90;;;;;;5025178;28;20172;-69
2022/10/17 02:57:11;;;;;;;5.90;5.03;;;15.00;99.90;;;;;;5020820;28;20180;-70
2022/10/17 02:59:40;;;;;;;6.82;5.50;;;15.00;99.90;;;;;;5027317;28;20246;-70
2022/10/17 03:02:06;;;;;;;5.75;5.03;;;15.10;99.90;;;;;;5023056;28;20208;-69
2022/10/17 03:04:32;;;;;;;6.32;4.75;;;15.00;99.90;;;;;;5029048;28;20554;-70
2022/10/17 03:06:58;;;;;;;10.07;5.22;;;15.00;99.90;;;;;;5023395;28;20212;-69
2022/10/17 03:09:24;;;;;;;6.07;5.15;;;15.00;99.90;;;;;;5026159;28;20204;-70
2022/10/17 03:11:49;;;;;;;9.55;5.38;;;15.00;99.90;;;;;;5026510;28;20199;-70
2022/10/17 03:14:15;;;;;;;6.50;5.47;;;15.10;99.90;;;;;;5022963;28;20197;-70
2022/10/17 03:16:41;;;;;;;5.63;4.97;;;15.10;99.90;;;;;;5025334;28;20212;-71
2022/10/17 03:19:06;;;;;;;6.47;5.32;;;15.10;99.90;;;;;;5023486;28;20601;-70
2022/10/17 03:21:32;;;;;;;6.85;4.70;;;15.10;99.90;;;;;;5023537;28;20274;-70
2022/10/17 03:23:57;;;;;;;6.28;5.32;;;15.10;99.90;;;;;;5023004;28;20215;-70
2022/10/17 03:26:23;;;;;;;5.50;5.00;;;15.10;99.90;;;;;;5028093;28;20706;-70
2022/10/17 03:28:49;;;;;;;5.75;5.20;;;15.10;99.90;;;;;;5024796;28;20262;-69
2022/10/17 03:31:16;;;;;;;5.22;4.75;;;15.10;99.90;;;;;;5028173;28;20299;-69
2022/10/17 03:33:41;;;;;;;6.38;4.93;;;15.10;99.90;;;;;;5028632;28;20216;-71
2022/10/17 03:36:08;;;;;;;5.95;5.22;;;15.20;99.90;;;;;;5025016;28;20306;-70
2022/10/17 03:38:34;;;;;;;5.22;4.72;;;15.20;99.90;;;;;;5024070;28;20208;-70
2022/10/17 03:41:00;;;;;;;8.30;5.25;;;15.20;99.90;;;;;;5037772;28;20240;-69
2022/10/17 03:43:26;;;;;;;5.60;5.07;;;15.20;99.90;;;;;;5027748;28;20207;-70
2022/10/17 03:45:51;;;;;;;7.38;5.20;;;15.20;99.90;;;;;;5023148;28;20259;-71
2022/10/17 03:48:17;;;;;;;6.07;4.90;;;15.10;99.90;;;;;;5024482;28;20566;-70
2022/10/17 03:50:42;;;;;;;6.97;5.22;;;15.10;99.90;;;;;;5025405;28;20207;-70
2022/10/17 03:53:08;;;;;;;6.30;5.65;;;15.10;99.90;;;;;;5025025;28;20259;-70
2022/10/17 03:55:34;;;;;;;7.53;5.68;;;15.10;99.90;;;;;;5024410;28;20261;-70
2022/10/17 03:57:59;;;;;;;6.07;5.45;;;15.10;99.90;;;;;;5022037;28;20216;-70
2022/10/17 04:00:25;;;;;;;6.65;5.82;;;15.10;99.90;;;;;;5032139;28;20254;-70
2022/10/17 04:02:50;;;;;;;5.93;5.35;;;15.10;99.90;;;;;;5027870;28;20533;-70
2022/10/17 04:05:16;;;;;;;6.13;5.18;;;15.10;99.90;;;;;;5025304;28;20223;-70
2022/10/17 04:07:41;;;;;;;8.48;5.43;;;15.00;99.90;;;;;;5029121;28;20208;-70
2022/10/17 04:10:07;;;;;;;9.65;5.88;;;15.00;99.90;;;;;;5028244;28;20213;-69
2022/10/17 04:12:33;;;;;;;5.70;5.20;;;15.00;99.90;;;;;;5026261;28;20589;-70
2022/10/17 04:14:58;;;;;;;7.15;5.63;;;15.00;99.90;;;;;;5022976;28;20260;-70
2022/10/17 04:17:24;;;;;;;7.57;5.20;;;15.00;99.90;;;;;;5032546;28;20271;-71
2022/10/17 04:19:49;;;;;;;8.32;5.60;;;15.00;99.90;;;;;;5026650;28;20223;-71
2022/10/17 04:22:15;;;;;;;7.35;5.97;;;15.00;99.90;;;;;;5026236;28;20200;-69
2022/10/17 04:24:41;;;;;;;6.28;5.45;;;15.00;99.90;;;;;;5028922;28;20204;-69
2022/10/17 04:27:06;;;;;;;6.60;5.97;;;14.90;99.90;;;;;;5028377;28;20670;-70
2022/10/17 04:29:32;;;;;;;6.03;5.32;;;14.90;99.90;;;;;;5023801;28;20822;-70
2022/10/17 04:31:57;;;;;;;8.77;6.13;;;14.90;99.90;;;;;;5026138;28;20220;-70
2022/10/17 04:34:23;;;;;;;8.88;5.38;;;14.90;99.90;;;;;;5031648;28;20211;-69
2022/10/17 04:36:50;;;;;;;7.70;5.57;;;14.90;99.90;;;;;;5027504;28;20718;-71
2022/10/17 04:39:16;;;;;;;6.15;5.43;;;14.90;99.90;;;;;;5024468;28;20216;-68
2022/10/17 04:41:41;;;;;;;7.25;6.53;;;14.80;99.90;;;;;;5025537;28;20183;-70
2022/10/17 04:44:08;;;;;;;10.75;6.10;;;14.90;99.90;;;;;;5028477;28;20749;-70
2022/10/17 04:46:34;;;;;;;6.55;5.47;;;14.90;99.90;;;;;;5023476;28;20208;-70
2022/10/17 04:48:59;;;;;;;8.65;6.53;;;14.80;99.90;;;;;;5024440;28;20235;-71
2022/10/17 04:51:25;;;;;;;8.98;6.82;;;14.90;99.90;;;;;;5039602;28;20653;-70
2022/10/17 04:53:51;;;;;;;9.98;5.95;;;14.90;99.90;;;;;;5033857;28;20662;-69
2022/10/17 04:56:19;;;;;;;10.95;6.53;;;14.80;99.90;;;;;;5029343;28;20204;-70
2022/10/17 04:58:45;;;;;;;6.75;5.63;;;14.90;99.90;;;;;;5028316;28;20283;-70
2022/10/17 05:01:13;;;;;;;7.63;5.35;;;14.90;99.90;;;;;;5037846;28;20284;-70
2022/10/17 05:03:39;;;;;;;9.73;5.90;;;14.90;99.90;;;;;;5029231;28;20204;-70
2022/10/17 05:06:06;;;;;;;8.93;5.75;;;14.90;99.90;;;;;;5024643;28;20263;-69
2022/10/17 05:08:32;;;;;;;8.77;5.65;;;14.80;99.90;;;;;;5039219;28;20551;-70
2022/10/17 05:10:57;;;;;;;7.03;5.97;;;14.80;99.90;;;;;;5033383;28;20295;-70
2022/10/17 05:13:23;;;;;;;6.97;5.50;;;14.90;99.90;;;;;;5028697;28;20234;-70
2022/10/17 05:15:49;;;;;;;10.23;6.13;;;14.80;99.90;;;;;;5028364;28;20219;-70
2022/10/17 05:18:14;;;;;;;8.30;6.32;;;14.80;99.90;;;;;;5038923;28;20208;-70
2022/10/17 05:20:40;;;;;;;9.00;6.68;;;14.80;99.90;;;;;;5029367;28;20282;-70
2022/10/17 05:23:05;;;;;;;10.85;6.85;;;14.80;99.90;;;;;;5026175;28;20699;-69
2022/10/17 05:25:31;;;;;;;11.48;6.30;;;14.80;99.90;;;;;;5039272;28;20242;-71
2022/10/17 05:27:56;;;;;;;10.30;6.15;;;14.90;99.90;;;;;;5030199;28;20268;-69
2022/10/17 05:30:22;;;;;;;12.05;6.65;;;14.90;99.90;;;;;;5033553;28;20231;-68
2022/10/17 05:32:51;;;;;;;6.57;5.93;;;14.80;99.90;;;;;;5035380;28;20185;-69
2022/10/17 05:35:16;;;;;;;7.35;6.30;;;14.90;99.90;;;;;;5037438;28;20203;-70
2022/10/17 05:37:42;;;;;;;7.03;5.85;;;14.80;99.90;;;;;;5029007;28;20739;-69
2022/10/17 05:40:08;;;;;;;6.63;5.65;;;14.80;99.90;;;;;;5024303;28;20804;-70
2022/10/17 05:42:33;;;;;;;6.35;5.55;;;14.80;99.90;;;;;;5032162;28;20222;-70
2022/10/17 05:44:59;;;;;;;7.38;6.22;;;14.80;99.90;;;;;;5030819;28;20561;-70
2022/10/17 05:47:24;;;;;;;6.97;5.80;;;14.90;99.90;;;;;;5029214;28;20242;-70
2022/10/17 05:49:50;;;;;;;7.82;5.75;;;14.90;99.90;;;;;;5031237;28;20208;-70
2022/10/17 05:52:15;;;;;;;9.38;6.28;;;15.00;99.90;;;;;;5052576;28;20215;-70
2022/10/17 05:54:41;;;;;;;8.13;5.45;;;15.00;99.90;;;;;;5029364;28;20247;-69
2022/10/17 05:57:07;;;;;;;7.63;5.38;;;15.00;99.90;;;;;;5024676;28;20216;-68
2022/10/17 05:59:32;;;;;;;9.20;5.97;;;15.00;99.90;;;;;;5033683;28;20211;-70
2022/10/17 06:01:58;;;;;;;9.18;5.95;;;15.10;99.90;;;;;;5032128;28;20404;-69
2022/10/17 06:04:23;;;;;;;6.05;5.45;;;15.40;99.90;;;;;;5028950;28;20247;-70
2022/10/17 06:06:49;;;;;;;9.00;5.75;;;15.70;99.90;;;;;;5028281;28;20826;-70
2022/10/17 06:09:14;;;;;;;6.82;4.60;;;16.50;99.90;;;;;;5036871;28;20830;-70
2022/10/17 06:11:40;;;;;;;5.00;4.60;;;16.60;99.90;;;;;;5032866;28;20272;-70
2022/10/17 06:14:05;;;;;;;6.95;4.53;;;17.30;99.90;;;;;;5024483;28;20213;-69
2022/10/17 06:16:31;;;;;;;8.00;5.22;;;17.70;99.90;;;;;;5033679;28;20200;-69
2022/10/17 06:18:57;;;;;;;8.50;4.60;;;17.50;99.90;;;;;;5032933;28;20217;-68
2022/10/17 06:21:25;;;;;;;5.53;4.22;;;18.40;99.90;;;;;;5028371;28;20258;-68
2022/10/17 06:23:51;;;;;;;5.22;4.10;;;18.90;99.90;;;;;;5047128;23;20242;-71
2022/10/17 06:26:17;;;;;;;6.53;3.92;;;19.00;99.90;;;;;;5040452;28;20215;-71
2022/10/17 06:28:43;;;;;;;10.48;4.05;;;18.30;99.90;;;;;;5031919;28;20675;-71
2022/10/17 06:31:14;;;;;;;6.10;4.05;;;18.80;99.90;;;;;;5025293;28;20219;-70
2022/10/17 06:33:39;;;;;;;4.45;4.00;;;18.20;99.90;;;;;;5038029;28;20269;-71
2022/10/17 06:36:06;;;;;;;6.25;4.28;;;18.00;99.90;;;;;;5031730;28;20184;-69
2022/10/17 06:38:35;;;;;;;6.95;4.63;;;17.60;99.90;;;;;;5026453;28;20234;-71
2022/10/17 06:41:14;;;;;;;5.75;4.20;;;17.50;99.90;;;;;;5029183;28;20228;-71
2022/10/17 06:43:45;;;;;;;5.82;4.35;;;17.80;99.90;;;;;;5035047;28;20223;-71
2022/10/17 06:46:11;;;;;;;5.65;4.40;;;17.60;99.90;;;;;;5029989;28;20753;-71
2022/10/17 06:48:37;;;;;;;5.32;4.22;;;18.10;99.90;;;;;;5026799;28;20280;-71
2022/10/17 06:51:05;;;;;;;9.77;4.00;;;18.50;99.90;;;;;;5035842;28;20310;-71
2022/10/17 06:53:33;;;;;;;10.65;4.78;;;18.10;99.90;;;;;;5034968;28;20334;-71
2022/10/17 06:56:01;;;;;;;5.80;4.40;;;17.90;99.90;;;;;;5025012;28;20201;-71
2022/10/17 06:58:29;;;;;;;7.25;4.47;;;18.00;99.90;;;;;;5032352;28;20207;-70
2022/10/17 07:01:04;;;;;;;6.78;4.18;;;17.70;99.90;;;;;;5033176;28;20224;-70
2022/10/17 07:03:30;;;;;;;5.10;3.67;;;18.00;99.90;;;;;;5032483;28;20230;-71
2022/10/17 07:05:56;;;;;;;5.03;4.13;;;18.00;99.90;;;;;;5021781;28;20191;-71
2022/10/17 07:08:23;;;;;;;6.68;4.55;;;18.40;99.90;;;;;;5037355;28;20172;-71
2022/10/17 07:10:48;;;;;;;4.85;4.10;;;19.00;99.90;;;;;;5029548;28;20291;-71
2022/10/17 07:13:14;;;;;;;4.63;3.75;;;19.50;99.90;;;;;;5026993;28;20230;-71
2022/10/17 07:15:40;;;;;;;21.33;15.60;;;19.70;99.90;;;;;;5026634;28;20623;-70
2022/10/17 07:18:06;;;;;;;5.13;4.07;;;19.70;99.90;;;;;;5036463;28;20556;-71
2022/10/17 07:20:33;;;;;;;4.65;3.88;;;19.60;99.90;;;;;;5029063;28;20200;-71
2022/10/17 07:22:58;;;;;;;8.40;3.78;;;19.30;99.90;;;;;;5021366;28;20304;-70
2022/10/17 07:25:24;;;;;;;5.00;4.07;;;19.10;99.90;;;;;;5035293;28;20299;-71
2022/10/17 07:27:50;;;;;;;7.40;6.22;;;18.90;99.90;;;;;;5031573;28;20310;-71
2022/10/17 07:30:16;;;;;;;5.47;4.15;;;19.40;99.90;;;;;;5027778;28;20203;-71
2022/10/17 07:32:42;;;;;;;4.78;3.70;;;19.50;99.90;;;;;;5039393;28;20628;-71
2022/10/17 07:35:09;;;;;;;6.18;4.40;;;19.80;99.90;;;;;;5037606;28;20760;-70
2022/10/17 07:37:35;;;;;;;5.05;3.97;;;20.10;99.90;;;;;;5030804;28;20267;-71
2022/10/17 07:40:01;;;;;;;5.25;3.97;;;20.60;99.90;;;;;;5024585;28;20224;-71
2022/10/17 07:42:27;;;;;;;4.05;3.65;;;20.90;99.90;;;;;;5036122;28;20221;-71
2022/10/17 07:44:53;;;;;;;4.55;3.72;;;20.50;99.90;;;;;;5035564;28;20176;-70
2022/10/17 07:47:19;;;;;;;6.82;3.58;;;20.60;99.90;;;;;;5032207;28;20258;-71
2022/10/17 07:49:45;;;;;;;3.97;3.47;;;21.20;99.90;;;;;;5032960;28;20216;-71
2022/10/17 07:52:15;;;;;;;5.15;3.72;;;20.90;99.90;;;;;;5040185;28;20221;-70
2022/10/17 07:54:40;;;;;;;5.20;3.63;;;21.20;99.90;;;;;;5030460;28;20315;-70
2022/10/17 07:57:06;;;;;;;4.43;3.17;;;21.80;99.90;;;;;;5027055;28;20653;-71
2022/10/17 07:59:33;;;;;;;3.90;3.50;;;21.70;99.90;;;;;;5034597;28;20204;-70
2022/10/17 08:01:59;;;;;;;5.68;4.07;;;21.50;99.90;;;;;;5034437;28;20201;-71
2022/10/17 08:04:25;;;;;;;5.90;3.63;;;20.70;99.90;;;;;;5030764;28;20215;-70
2022/10/17 08:06:51;;;;;;;21.95;3.83;;;21.00;99.90;;;;;;5030335;28;20301;-72
2022/10/17 08:09:17;;;;;;;5.25;3.63;;;21.50;99.90;;;;;;5030191;28;20214;-69
2022/10/17 08:11:43;;;;;;;4.75;3.35;;;22.20;99.90;;;;;;5032132;28;20181;-70
2022/10/17 08:14:09;;;;;;;5.53;3.92;;;21.80;99.90;;;;;;5027218;28;20240;-69
2022/10/17 08:16:36;;;;;;;6.38;4.00;;;22.00;99.90;;;;;;5034452;28;20208;-70
2022/10/17 08:19:02;;;;;;;4.22;3.67;;;21.70;99.90;;;;;;5036292;28;20221;-69
2022/10/17 08:21:27;;;;;;;5.43;3.65;;;21.60;99.90;;;;;;5030268;28;20218;-70
2022/10/17 08:23:53;;;;;;;4.53;3.42;;;21.90;99.90;;;;;;5023037;28;20250;-69
2022/10/17 08:26:19;;;;;;;5.38;3.22;;;21.80;99.90;;;;;;5039951;28;20675;-69
2022/10/17 08:28:45;;;;;;;5.60;3.60;;;21.50;99.90;;;;;;5031107;28;20853;-70
2022/10/17 08:31:19;;;;;;;9.38;3.55;;;21.30;99.90;;;;;;5031238;28;20222;-71
2022/10/17 08:33:46;;;;;;;8.00;3.50;;;20.90;99.90;;;;;;5035285;28;20212;-70
2022/10/17 08:36:14;;;;;;;9.98;4.00;;;20.80;99.90;;;;;;5035810;28;20204;-70
2022/10/17 08:38:41;;;;;;;6.13;3.40;;;21.00;99.90;;;;;;5027684;28;20242;-70
2022/10/17 08:41:32;;;;;;;4.03;3.47;;;21.10;99.90;;;;;;5025873;28;20263;-70
2022/10/17 08:44:14;;;;;;;6.03;3.58;;;21.00;99.90;;;;;;5034432;28;20211;-70
2022/10/17 08:46:42;;;;;;;6.45;3.40;;;21.60;99.90;;;;;;5027686;28;20259;-69
2022/10/17 08:49:26;;;;;;;8.40;3.22;;;22.00;99.90;;;;;;5031106;28;20571;-70
2022/10/17 08:51:58;;;;;;;6.55;3.33;;;22.70;99.90;;;;;;5032217;28;20259;-68
2022/10/17 08:54:44;;;;;;;8.77;2.60;;;22.20;99.90;;;;;;5029120;28;20690;-70
2022/10/17 08:57:12;;;;;;;7.95;3.35;;;21.70;99.90;;;;;;5025535;28;20212;-70
2022/10/17 08:59:38;;;;;;;6.65;3.28;;;21.90;99.90;;;;;;5034950;28;20199;-69
2022/10/17 09:02:47;;;;;;;5.25;3.25;;;21.50;99.90;;;;;;5034035;28;20197;-69
2022/10/17 09:05:38;;;;;;;3.20;2.75;;;21.40;99.90;;;;;;5026952;28;20211;-70
2022/10/17 09:08:19;;;;;;;8.52;3.28;;;21.70;99.90;;;;;;5038320;28;20223;-70
2022/10/17 09:10:59;;;;;;;5.95;3.15;;;21.70;99.90;;;;;;5030732;28;20209;-70
2022/10/17 09:14:03;;;;;;;4.03;2.85;;;21.80;99.90;;;;;;5027836;28;20733;-70
2022/10/17 09:16:49;;;;;;;4.60;3.00;;;22.00;99.90;;;;;;5041002;28;20235;-70
2022/10/17 09:19:30;;;;;;;5.65;3.05;;;21.80;99.90;;;;;;5037738;28;20285;-68
2022/10/17 09:22:01;;;;;;;5.68;2.80;;;21.90;99.90;;;;;;5027177;28;20209;-70
2022/10/17 09:24:45;;;;;;;5.00;4.15;;;22.00;99.90;;;;;;5029451;28;20646;-70
2022/10/17 09:27:31;;;;;;;6.30;3.67;;;22.20;99.90;;;;;;5052164;28;20169;-70
2022/10/17 09:30:34;;;;;;;4.22;2.90;;;22.10;99.90;;;;;;5027809;28;20177;-70
2022/10/17 09:33:00;;;;;;;6.05;3.15;;;22.20;99.90;;;;;;5031480;28;20283;-70
2022/10/17 09:35:27;;;;;;;5.18;2.80;;;22.50;99.90;;;;;;5037186;28;20294;-70
2022/10/17 09:37:53;;;;;;;3.50;2.70;;;22.70;99.90;;;;;;5028387;28;20209;-69
2022/10/17 09:40:33;;;;;;;6.45;2.95;;;22.70;99.90;;;;;;5024376;28;20220;-70
2022/10/17 09:43:03;;;;;;;4.80;3.05;;;22.30;99.90;;;;;;5035398;28;20223;-72
2022/10/17 09:45:37;;;;;;;3.22;2.85;;;22.20;99.90;;;;;;5032968;28;20629;-69
2022/10/17 09:48:24;;;;;;;6.32;3.60;;;22.20;99.90;;;;;;5029431;28;20172;-70
2022/10/17 09:50:50;;;;;;;7.07;3.25;;;22.40;99.90;;;;;;5034217;28;20176;-69
2022/10/17 09:53:37;;;;;;;7.05;2.90;;;22.70;99.90;;;;;;5033257;28;20215;-70
2022/10/17 09:56:15;;;;;;;4.40;3.08;;;22.50;99.90;;;;;;5026846;28;20196;-70
2022/10/17 09:58:44;;;;;;;8.07;2.80;;;22.80;99.90;;;;;;5027942;28;20261;-69
2022/10/17 10:01:28;;;;;;;5.43;3.10;;;22.80;99.90;;;;;;5033880;28;20228;-70
2022/10/17 10:04:14;;;;;;;4.38;3.15;;;23.00;99.90;;;;;;5027129;28;20240;-70
2022/10/17 10:06:59;;;;;;;8.20;3.10;;;22.80;99.90;;;;;;5032771;28;20219;-70
2022/10/17 10:09:28;;;;;;;7.30;3.33;;;23.10;99.90;;;;;;5047183;28;20211;-71
2022/10/17 10:11:56;;;;;;;6.57;2.58;;;23.40;99.90;;;;;;5030217;28;20173;-71
2022/10/17 10:14:38;;;;;;;4.07;2.42;;;23.20;99.90;;;;;;5035747;28;20270;-70
2022/10/17 10:17:24;;;;;;;6.25;3.03;;;23.40;99.90;;;;;;5036074;28;20266;-70
2022/10/17 10:19:50;;;;;;;2.65;2.45;;;23.40;99.90;;;;;;5028423;28;20303;-70
2022/10/17 10:22:18;;;;;;;4.07;2.75;;;23.30;99.90;;;;;;5027272;28;20215;-70
2022/10/17 10:24:43;;;;;;;3.45;2.75;;;23.50;99.90;;;;;;5026658;28;20216;-70
2022/10/17 10:27:15;;;;;;;3.15;2.67;;;23.30;99.90;;;;;;5034745;28;20181;-70
2022/10/17 10:29:47;;;;;;;3.17;2.50;;;23.20;99.90;;;;;;5026515;28;20172;-70
2022/10/17 10:32:26;;;;;;;3.10;2.63;;;23.30;99.90;;;;;;5030201;28;20211;-70
2022/10/17 10:35:15;;;;;;;3.95;2.65;;;23.50;99.90;;;;;;5031883;28;20231;-70
2022/10/17 10:37:43;;;;;;;6.68;2.60;;;23.50;99.90;;;;;;5025828;28;20241;-70
2022/10/17 10:40:36;;;;;;;8.15;3.00;;;23.80;99.90;;;;;;5025139;28;20245;-70
2022/10/17 10:43:03;;;;;;;4.57;2.38;;;23.80;99.90;;;;;;5024337;28;20232;-70
2022/10/17 10:45:35;;;;;;;8.95;4.05;;;23.80;99.90;;;;;;5031974;28;20219;-70
2022/10/17 10:48:20;;;;;;;4.47;2.75;;;24.00;99.90;;;;;;5027842;28;20191;-70
2022/10/17 10:50:47;;;;;;;5.22;3.20;;;23.90;99.90;;;;;;5032983;28;20176;-70
2022/10/17 10:53:41;;;;;;;6.15;2.78;;;23.90;99.90;;;;;;5033673;28;20218;-70
2022/10/17 10:56:19;;;;;;;6.63;2.63;;;23.70;99.90;;;;;;5025968;28;20699;-70
2022/10/17 10:59:05;;;;;;;2.95;2.40;;;23.70;99.90;;;;;;5026683;28;20219;-70
2022/10/17 11:01:40;;;;;;;9.05;2.47;;;23.80;99.90;;;;;;5027351;28;20307;-71
2022/10/17 11:04:24;;;;;;;4.63;2.53;;;24.10;99.90;;;;;;5027609;28;20239;-70
2022/10/17 11:06:54;;;;;;;4.03;2.72;;;24.40;99.90;;;;;;5019776;28;20714;-69
2022/10/17 11:09:41;;;;;;;6.45;2.72;;;24.40;99.90;;;;;;5030360;28;20218;-72
2022/10/17 11:12:17;;;;;;;8.00;2.80;;;24.30;99.90;;;;;;5044076;28;20587;-69
2022/10/17 11:14:52;;;;;;;4.40;2.72;;;24.20;99.90;;;;;;5027367;28;20231;-70
2022/10/17 11:17:40;;;;;;;3.42;2.45;;;24.00;99.90;;;;;;5034840;28;20207;-70
2022/10/17 11:20:06;;;;;;;3.88;2.20;;;24.10;99.90;;;;;;5029560;28;20221;-71
2022/10/17 11:22:41;;;;;;;4.35;2.55;;;24.30;99.90;;;;;;5028824;28;20652;-71
2022/10/17 11:25:32;;;;;;;6.28;2.80;;;24.30;99.90;;;;;;5029723;28;20499;-71
2022/10/17 11:27:57;;;;;;;5.35;2.88;;;24.40;99.90;;;;;;5030094;28;20209;-71
2022/10/17 11:30:27;;;;;;;4.18;2.72;;;24.30;99.90;;;;;;5031403;28;20215;-71
2022/10/17 11:32:59;;;;;;;4.63;2.75;;;24.30;99.90;;;;;;5030014;28;20279;-72
2022/10/17 11:35:29;;;;;;;4.78;2.38;;;24.40;99.90;;;;;;5035672;28;20194;-71
2022/10/17 11:38:04;;;;;;;3.38;2.63;;;24.50;99.90;;;;;;5026893;28;20259;-71
2022/10/17 11:40:33;;;;;;;4.80;2.40;;;24.60;99.90;;;;;;5022447;28;20215;-72
2022/10/17 11:43:04;;;;;;;6.03;2.70;;;24.70;99.90;;;;;;5033253;28;20216;-71
2022/10/17 11:45:39;;;;;;;3.75;2.75;;;24.50;99.90;;;;;;5031050;28;20216;-70
2022/10/17 11:48:19;;;;;;;4.28;2.38;;;24.40;99.90;;;;;;5028051;28;20283;-71
2022/10/17 11:50:50;;;;;;;3.85;3.03;;;24.30;99.90;;;;;;5033221;28;20638;-71
2022/10/17 11:53:22;;;;;;;6.65;2.80;;;24.20;99.90;;;;;;5033704;28;20637;-71
2022/10/17 11:55:51;;;;;;;5.10;2.92;;;24.10;99.90;;;;;;5024936;28;20212;-70
2022/10/17 11:58:40;;;;;;;6.22;3.10;;;24.10;99.90;;;;;;5026366;28;20203;-71
2022/10/17 12:01:20;;;;;;;7.50;3.03;;;24.10;99.90;;;;;;5033487;28;20229;-71
2022/10/17 12:04:17;;;;;;;6.75;3.45;;;24.30;99.90;;;;;;5026255;28;20228;-71
2022/10/17 12:06:55;;;;;;;3.03;2.42;;;24.30;99.90;;;;;;5023915;28;21062;-71
2022/10/17 12:09:56;;;;;;;5.25;2.83;;;24.50;99.90;;;;;;5025813;28;20709;-71
2022/10/17 12:12:29;;;;;;;7.38;2.92;;;24.40;99.90;;;;;;4998730;28;20203;-71
2022/10/17 12:15:24;;;;;;;4.70;2.38;;;24.30;99.90;;;;;;5019000;28;20192;-71
2022/10/17 12:18:01;;;;;;;3.50;2.55;;;24.40;99.90;;;;;;5033139;28;20169;-71
2022/10/17 12:20:29;;;;;;;4.65;3.20;;;24.60;99.90;;;;;;5027637;28;20208;-70
2022/10/17 12:25:34;;;;;;;3.47;2.42;;;24.60;99.90;;;;;;5059448;28;20228;-68
2022/10/17 12:28:09;;;;;;;6.07;2.70;;;24.70;99.90;;;;;;5057039;28;20215;-69
2022/10/17 12:30:35;;;;;;;4.28;2.85;;;24.80;99.90;;;;;;5048591;28;20215;-68
2022/10/17 12:33:20;;;;;;;7.32;2.60;;;24.80;99.90;;;;;;5055767;28;20688;-69
2022/10/17 12:35:46;;;;;;;5.75;2.70;;;24.70;99.90;;;;;;5052883;28;20178;-69
2022/10/17 12:38:20;;;;;;;5.60;2.63;;;24.70;99.90;;;;;;5052343;28;20211;-69
2022/10/17 12:40:48;;;;;;;4.60;2.63;;;24.60;99.90;;;;;;5048735;28;20214;-70
2022/10/17 12:43:14;;;;;;;5.07;2.80;;;24.60;99.90;;;;;;5060333;28;20210;-70
2022/10/17 12:45:48;;;;;;;6.32;2.60;;;24.60;99.90;;;;;;5052733;28;20234;-68
2022/10/17 12:48:32;;;;;;;6.55;2.95;;;24.60;99.90;;;;;;5052318;28;20207;-68
2022/10/17 12:51:04;;;;;;;5.10;2.70;;;24.60;99.90;;;;;;5053592;28;20241;-68
2022/10/17 12:53:57;;;;;;;5.88;2.53;;;24.60;99.90;;;;;;5041189;28;20291;-69
2022/10/17 12:56:37;;;;;;;5.47;2.53;;;24.60;99.90;;;;;;5048375;28;20203;-69
2022/10/17 12:59:26;;;;;;;4.95;2.42;;;24.60;99.90;;;;;;5038691;28;20623;-69
2022/10/17 13:01:56;;;;;;;5.80;2.80;;;24.60;99.90;;;;;;5034882;28;20749;-70
2022/10/17 13:04:22;;;;;;;5.93;3.17;;;24.60;99.90;;;;;;5048468;28;20203;-69
2022/10/17 13:06:53;;;;;;;5.20;2.63;;;24.50;99.90;;;;;;5042310;28;20728;-69
2022/10/17 13:09:36;;;;;;;4.93;2.30;;;24.50;99.90;;;;;;5038103;28;20206;-70
2022/10/17 13:12:05;;;;;;;2.67;2.30;;;24.40;99.90;;;;;;5051186;28;20176;-69